createdAt,value
2019-06-26T00:01:44.106Z,16.90
2019-06-26T00:04:16.148Z,15.90
2019-06-26T00:06:47.890Z,15.70
2019-06-26T00:09:20.959Z,16.07
2019-06-26T00:11:53.193Z,17.33
2019-06-26T00:14:25.090Z,15.53
2019-06-26T00:16:56.760Z,16.20
2019-06-26T00:19:28.583Z,17.90
2019-06-26T00:22:01.496Z,16.27
2019-06-26T00:24:33.247Z,16.30
2019-06-26T00:27:05.074Z,16.37
2019-06-26T00:29:36.828Z,16.67
2019-06-26T00:32:08.566Z,14.23
2019-06-26T00:34:40.307Z,15.97
2019-06-26T00:37:12.049Z,16.43
2019-06-26T00:39:43.790Z,16.23
2019-06-26T00:42:15.638Z,18.00
2019-06-26T00:44:47.370Z,17.20
2019-06-26T00:47:19.125Z,18.87
2019-06-26T00:49:52.126Z,19.63
2019-06-26T00:52:23.870Z,22.03
2019-06-26T00:54:55.602Z,21.43
2019-06-26T00:57:27.342Z,20.97
2019-06-26T01:00:00.740Z,19.00
2019-06-26T01:02:34.247Z,19.70
2019-06-26T01:05:12.598Z,19.50
2019-06-26T01:07:44.247Z,18.33
2019-06-26T01:10:16.787Z,18.70
2019-06-26T01:12:48.443Z,19.50
2019-06-26T01:15:20.449Z,19.20
2019-06-26T01:17:53.578Z,19.17
2019-06-26T01:20:25.580Z,19.40
2019-06-26T01:22:57.502Z,18.87
2019-06-26T01:25:29.343Z,19.93
2019-06-26T01:28:02.333Z,20.13
2019-06-26T01:30:34.064Z,20.50
2019-06-26T01:33:05.883Z,20.07
2019-06-26T01:35:37.917Z,19.03
2019-06-26T01:38:10.433Z,20.13
2019-06-26T01:40:42.269Z,18.70
2019-06-26T01:43:14.113Z,19.30
2019-06-26T01:45:45.849Z,19.60
2019-06-26T01:48:17.597Z,20.23
2019-06-26T01:50:49.346Z,19.37
2019-06-26T01:53:21.082Z,18.73
2019-06-26T01:55:53.799Z,18.73
2019-06-26T01:58:25.543Z,19.63
2019-06-26T02:00:57.290Z,19.63
2019-06-26T02:03:29.032Z,18.90
2019-06-26T02:06:00.777Z,19.37
2019-06-26T02:08:33.470Z,18.97
2019-06-26T02:11:05.861Z,18.50
2019-06-26T02:13:37.506Z,19.07
2019-06-26T02:16:09.350Z,20.47
2019-06-26T02:18:45.765Z,19.27
2019-06-26T02:21:17.497Z,18.73
2019-06-26T02:23:49.242Z,19.17
2019-06-26T02:26:21.552Z,19.60
2019-06-26T02:28:53.399Z,19.30
2019-06-26T02:31:25.144Z,17.63
2019-06-26T02:33:56.893Z,18.17
2019-06-26T02:36:28.638Z,18.20
2019-06-26T02:39:00.506Z,18.90
2019-06-26T02:41:32.808Z,16.63
2019-06-26T02:44:04.928Z,17.03
2019-06-26T02:46:36.918Z,16.40
2019-06-26T02:49:08.665Z,17.60
2019-06-26T02:51:40.514Z,16.67
2019-06-26T02:54:12.260Z,18.43
2019-06-26T02:56:43.958Z,20.63
2019-06-26T02:59:15.716Z,21.37
2019-06-26T03:01:47.476Z,22.40
2019-06-26T03:04:19.293Z,22.27
2019-06-26T03:06:51.046Z,21.17
2019-06-26T03:09:23.509Z,22.77
2019-06-26T03:11:55.163Z,24.00
2019-06-26T03:14:26.909Z,24.63
2019-06-26T03:16:58.661Z,21.10
2019-06-26T03:19:30.413Z,21.20
2019-06-26T03:22:02.165Z,20.90
2019-06-26T03:24:33.909Z,21.00
2019-06-26T03:27:08.891Z,18.33
2019-06-26T03:29:39.258Z,19.07
2019-06-26T03:32:11.104Z,17.33
2019-06-26T03:34:42.835Z,17.80
2019-06-26T03:37:14.589Z,16.97
2019-06-26T03:39:47.598Z,17.53
2019-06-26T03:42:19.346Z,20.17
2019-06-26T03:44:51.087Z,20.80
2019-06-26T03:47:22.820Z,19.20
2019-06-26T03:49:54.571Z,19.17
2019-06-26T03:52:26.320Z,18.13
2019-06-26T03:54:58.156Z,17.57
2019-06-26T03:57:29.914Z,18.90
2019-06-26T04:00:01.990Z,17.50
2019-06-26T04:02:37.801Z,17.37
2019-06-26T04:05:11.263Z,17.00
2019-06-26T04:07:43.006Z,16.43
2019-06-26T04:10:14.998Z,15.70
2019-06-26T04:12:46.836Z,16.13
2019-06-26T04:15:18.923Z,15.37
2019-06-26T04:17:50.702Z,15.30
2019-06-26T04:20:22.573Z,14.80
2019-06-26T04:22:55.551Z,14.37
2019-06-26T04:25:27.205Z,14.50
2019-06-26T04:28:00.277Z,13.83
2019-06-26T04:30:31.922Z,13.63
2019-06-26T04:33:03.836Z,13.57
2019-06-26T04:35:35.475Z,13.60
2019-06-26T04:38:07.218Z,13.60
2019-06-26T04:40:38.962Z,12.67
2019-06-26T04:43:10.705Z,13.10
2019-06-26T04:45:57.152Z,12.13
2019-06-26T04:48:16.081Z,12.18
2019-06-26T04:50:47.820Z,12.23
2019-06-26T04:53:19.668Z,12.47
2019-06-26T04:55:51.404Z,11.55
2019-06-26T04:58:23.141Z,12.10
2019-06-26T05:00:57.323Z,11.85
2019-06-26T05:03:29.071Z,11.85
2019-06-26T05:06:00.931Z,11.85
2019-06-26T05:08:32.685Z,11.63
2019-06-26T05:11:04.707Z,10.35
2019-06-26T05:13:36.576Z,10.75
2019-06-26T05:16:14.897Z,11.10
2019-06-26T05:18:41.570Z,11.65
2019-06-26T05:21:13.330Z,11.45
2019-06-26T05:23:45.094Z,10.53
2019-06-26T05:26:16.736Z,10.48
2019-06-26T05:28:48.604Z,10.38
2019-06-26T05:31:20.942Z,10.95
2019-06-26T09:58:18.939Z,6.53
2019-06-26T10:00:50.850Z,8.20
2019-06-26T10:03:22.590Z,7.53
2019-06-26T10:05:54.323Z,7.63
2019-06-26T10:08:26.405Z,7.55
2019-06-26T10:11:05.378Z,7.40
2019-06-26T10:13:37.090Z,7.95
2019-06-26T10:16:09.033Z,7.55
2019-06-26T10:18:40.974Z,7.80
2019-06-26T10:21:12.815Z,7.10
2019-06-26T10:23:44.570Z,7.90
2019-06-26T10:26:16.324Z,7.28
2019-06-26T10:28:48.071Z,8.60
2019-06-26T10:31:19.838Z,8.13
2019-06-26T10:33:51.579Z,8.10
2019-06-26T10:36:24.693Z,7.17
2019-06-26T10:38:58.182Z,7.83
2019-06-26T10:41:29.975Z,8.18
2019-06-26T10:44:01.799Z,7.62
2019-06-26T10:46:35.278Z,7.58
2019-06-26T10:49:07.255Z,7.60
2019-06-26T10:51:39.705Z,7.50
2019-06-26T10:54:11.618Z,8.70
2019-06-26T10:56:54.065Z,7.92
2019-06-26T10:59:36.976Z,7.90
2019-06-26T11:02:12.430Z,7.72
2019-06-26T11:04:50.848Z,7.83
2019-06-26T11:07:22.641Z,9.28
2019-06-26T11:09:54.463Z,9.28
2019-06-26T11:12:26.187Z,8.28
2019-06-26T11:14:57.943Z,7.70
2019-06-26T11:17:29.893Z,8.08
2019-06-26T11:20:01.549Z,7.12
2019-06-26T11:22:33.355Z,8.03
2019-06-26T11:25:07.110Z,8.25
2019-06-26T11:27:38.816Z,7.42
2019-06-26T11:30:11.985Z,6.65
2019-06-26T11:32:43.691Z,6.97
2019-06-26T11:35:15.998Z,7.08
2019-06-26T11:37:47.972Z,7.28
2019-06-26T11:40:20.314Z,7.40
2019-06-26T11:42:52.097Z,6.78
2019-06-26T11:45:24.782Z,7.62
2019-06-26T11:47:57.748Z,6.28
2019-06-26T11:50:30.393Z,6.62
2019-06-26T11:53:03.056Z,6.37
2019-06-26T11:55:34.982Z,6.40
2019-06-26T11:58:06.827Z,6.70
2019-06-26T12:00:41.728Z,6.53
2019-06-26T12:03:14.560Z,7.00
2019-06-26T12:05:48.137Z,6.47
2019-06-26T12:08:22.579Z,6.37
2019-06-26T12:10:54.333Z,7.10
2019-06-26T12:13:26.157Z,6.97
2019-06-26T12:15:58.163Z,7.03
2019-06-26T12:18:29.911Z,6.55
2019-06-26T12:21:01.898Z,6.50
2019-06-26T12:23:33.756Z,6.70
2019-06-26T12:26:06.931Z,6.78
2019-06-26T12:28:46.921Z,6.92
2019-06-26T12:31:23.164Z,6.50
2019-06-26T12:34:02.890Z,6.65
2019-06-26T12:36:39.001Z,6.80
2019-06-26T12:39:13.414Z,7.33
2019-06-26T12:41:52.111Z,6.30
2019-06-26T12:44:31.907Z,6.90
2019-06-26T12:47:09.123Z,6.90
2019-06-26T12:49:42.956Z,6.47
2019-06-26T12:52:22.235Z,5.58
2019-06-26T12:55:00.194Z,5.90
2019-06-26T12:57:32.648Z,6.30
2019-06-26T13:00:11.781Z,6.35
2019-06-26T13:02:57.708Z,6.47
2019-06-26T13:05:32.899Z,6.65
2019-06-26T13:08:09.941Z,6.10
2019-06-26T13:10:49.435Z,6.08
2019-06-26T13:13:22.750Z,5.90
2019-06-26T13:16:02.442Z,6.92
2019-06-26T13:18:35.000Z,6.55
2019-06-26T13:21:06.717Z,6.53
2019-06-26T13:23:42.200Z,6.85
2019-06-26T13:26:22.715Z,6.97
2019-06-26T13:28:57.047Z,6.28
2019-06-26T13:31:30.890Z,6.30
2019-06-26T13:34:07.518Z,5.80
2019-06-26T13:36:43.647Z,5.53
2019-06-26T13:39:19.412Z,4.83
2019-06-26T13:41:53.523Z,5.60
2019-06-26T13:44:27.784Z,5.05
2019-06-26T13:47:16.831Z,4.78
2019-06-26T13:49:50.475Z,5.33
2019-06-26T13:52:22.548Z,4.92
2019-06-26T13:54:57.225Z,5.25
2019-06-26T13:57:31.778Z,4.97
2019-06-26T14:00:09.985Z,5.30
2019-06-26T14:02:50.955Z,5.05
2019-06-26T14:05:22.819Z,4.97
2019-06-26T14:07:55.561Z,5.37
2019-06-26T14:10:27.519Z,5.83
2019-06-26T14:13:00.550Z,4.97
2019-06-26T14:15:33.386Z,5.30
2019-06-26T14:18:05.557Z,6.03
2019-06-26T14:20:37.571Z,5.60
2019-06-26T14:23:10.003Z,6.55
2019-06-26T14:25:41.764Z,6.17
2019-06-26T14:28:13.492Z,6.85
2019-06-26T14:30:45.233Z,6.33
2019-06-26T14:33:17.065Z,6.12
2019-06-26T14:35:49.089Z,6.72
2019-06-26T14:38:20.822Z,6.65
2019-06-26T14:40:52.651Z,6.70
2019-06-26T14:43:27.942Z,6.83
2019-06-26T14:46:03.208Z,6.58
2019-06-26T14:48:36.415Z,6.30
2019-06-26T14:51:09.937Z,5.90
2019-06-26T14:53:41.997Z,6.60
2019-06-26T14:56:13.930Z,7.12
2019-06-26T14:58:47.491Z,7.17
2019-06-26T15:01:21.279Z,6.78
2019-06-26T15:03:56.657Z,6.20
2019-06-26T15:06:32.335Z,9.23
2019-06-26T15:09:10.083Z,7.58
2019-06-26T15:11:47.714Z,6.10
2019-06-26T15:14:21.268Z,6.72
2019-06-26T15:16:53.217Z,6.87
2019-06-26T15:19:27.450Z,6.17
2019-06-26T15:22:04.892Z,6.25
2019-06-26T15:24:38.384Z,6.97
2019-06-26T15:27:10.767Z,6.65
2019-06-26T15:29:45.565Z,6.30
2019-06-26T15:32:17.218Z,6.75
2019-06-26T15:34:50.617Z,7.58
2019-06-26T15:37:22.255Z,6.37
2019-06-26T15:39:53.909Z,7.78
2019-06-26T15:42:29.455Z,7.23
2019-06-26T15:45:02.119Z,7.40
2019-06-26T15:47:34.009Z,7.50
2019-06-26T15:50:10.785Z,7.67
2019-06-26T15:52:44.195Z,7.17
2019-06-26T15:55:19.145Z,8.48
2019-06-26T15:57:51.124Z,7.20
2019-06-26T16:00:25.157Z,7.28
2019-06-26T16:02:57.137Z,7.23
2019-06-26T16:05:33.339Z,6.70
2019-06-26T16:08:08.079Z,6.45
2019-06-26T16:10:46.651Z,6.42
2019-06-26T16:13:19.943Z,7.17
2019-06-26T16:15:56.434Z,7.67
2019-06-26T16:18:33.654Z,6.43
2019-06-26T16:21:06.896Z,7.70
2019-06-26T16:23:38.519Z,6.83
2019-06-26T16:26:11.684Z,7.10
2019-06-26T16:28:45.209Z,6.70
2019-06-26T16:31:22.139Z,7.20
2019-06-26T16:33:54.576Z,6.62
2019-06-26T16:36:26.595Z,7.27
2019-06-26T16:38:58.362Z,6.23
2019-06-26T16:41:30.054Z,6.75
2019-06-26T16:44:01.908Z,7.07
2019-06-26T16:46:34.875Z,6.58
2019-06-26T16:49:06.517Z,6.70
2019-06-26T16:51:40.011Z,7.93
2019-06-26T16:54:14.611Z,13.57
2019-06-26T16:56:46.363Z,7.70
2019-06-26T16:59:19.591Z,7.22
2019-06-26T17:01:52.027Z,7.50
2019-06-26T17:04:31.657Z,8.20
2019-06-26T17:07:08.675Z,6.60
2019-06-26T17:09:44.221Z,7.90
2019-06-26T17:12:14.561Z,8.17
2019-06-26T17:14:46.184Z,6.93
2019-06-26T17:17:17.942Z,7.47
2019-06-26T17:19:49.803Z,7.47
2019-06-26T17:22:21.512Z,7.77
2019-06-26T17:24:53.277Z,7.77
2019-06-26T17:27:25.048Z,8.23
2019-06-26T17:29:58.303Z,7.90
2019-06-26T17:32:30.025Z,7.53
2019-06-26T17:35:02.092Z,7.07
2019-06-26T17:37:34.338Z,7.17
2019-06-26T17:40:08.282Z,7.50
2019-06-26T17:42:40.493Z,7.53
2019-06-26T17:45:15.311Z,7.73
2019-06-26T17:47:46.950Z,7.43
2019-06-26T17:50:19.673Z,8.30
2019-06-26T17:52:51.534Z,8.67
2019-06-26T17:55:23.327Z,7.57
2019-06-26T17:57:55.063Z,8.67
2019-06-26T18:00:31.510Z,8.30
2019-06-26T18:03:04.551Z,7.97
2019-06-26T18:05:36.409Z,7.20
2019-06-26T18:08:08.168Z,8.40
2019-06-26T18:10:39.959Z,9.07
2019-06-26T18:13:11.701Z,8.50
2019-06-26T18:15:44.554Z,8.10
2019-06-26T18:18:17.371Z,8.93
2019-06-26T18:20:49.115Z,8.83
2019-06-26T18:23:33.613Z,9.00
2019-06-26T18:26:11.557Z,8.63
2019-06-26T18:28:27.941Z,8.73
2019-06-26T18:30:59.862Z,9.73
2019-06-26T18:33:31.641Z,10.53
2019-06-26T18:36:03.398Z,9.80
2019-06-26T18:38:35.122Z,10.13
2019-06-26T18:41:10.991Z,9.33
2019-06-26T18:43:48.435Z,10.00
2019-06-26T18:46:20.190Z,9.37
2019-06-26T18:48:52.031Z,9.00
2019-06-26T18:51:24.054Z,8.63
2019-06-26T18:53:55.792Z,8.60
2019-06-26T18:56:27.538Z,8.80
2019-06-26T18:59:06.920Z,8.67
2019-06-26T19:01:49.773Z,8.63
2019-06-26T19:04:21.618Z,9.03
2019-06-26T19:06:53.359Z,10.00
2019-06-26T19:09:25.116Z,9.00
2019-06-26T19:11:56.867Z,9.90
2019-06-26T19:14:28.599Z,9.83
2019-06-26T19:17:00.441Z,9.80
2019-06-26T19:19:34.318Z,8.97
2019-06-26T19:22:06.424Z,9.90
2019-06-26T19:24:38.472Z,8.70
2019-06-26T19:27:11.711Z,9.40
2019-06-26T19:29:43.466Z,8.40
2019-06-26T19:32:15.240Z,9.27
2019-06-26T19:34:46.964Z,8.70
2019-06-26T19:37:20.544Z,8.60
2019-06-26T19:39:54.287Z,8.37
2019-06-26T19:42:27.278Z,8.63
2019-06-26T19:44:58.921Z,8.60
2019-06-26T19:47:31.701Z,8.43
2019-06-26T19:50:07.748Z,7.83
2019-06-26T19:52:39.595Z,8.30
2019-06-26T19:55:12.235Z,9.37
2019-06-26T19:57:44.891Z,8.63
2019-06-26T20:00:18.333Z,8.47
2019-06-26T20:02:52.652Z,8.30
2019-06-26T20:05:26.223Z,7.83
2019-06-26T20:08:02.579Z,8.13
2019-06-26T20:10:39.870Z,8.37
2019-06-26T20:13:08.050Z,8.40
2019-06-26T20:15:40.392Z,8.70
2019-06-26T20:18:14.208Z,11.97
2019-06-26T20:20:46.012Z,11.07
2019-06-26T20:23:19.904Z,8.83
2019-06-26T20:25:51.986Z,9.03
2019-06-26T20:28:25.568Z,9.20
2019-06-26T20:30:58.683Z,8.83
2019-06-26T20:33:31.055Z,8.90
2019-06-26T20:36:05.351Z,8.83
2019-06-26T20:38:39.173Z,8.30
2019-06-26T20:41:11.078Z,7.93
2019-06-26T20:43:44.431Z,8.20
2019-06-26T20:46:17.825Z,7.90
2019-06-26T20:48:49.853Z,8.07
2019-06-26T20:51:23.933Z,8.20
2019-06-26T20:53:57.661Z,8.03
2019-06-26T20:56:31.418Z,8.93
2019-06-26T20:59:03.381Z,8.57
2019-06-26T21:01:36.976Z,7.53
2019-06-26T21:04:10.455Z,8.10
2019-06-26T21:06:42.221Z,7.53
2019-06-26T21:09:15.235Z,8.10
2019-06-26T21:11:46.987Z,8.53
2019-06-26T21:14:19.990Z,8.60
2019-06-26T21:16:51.796Z,7.90
2019-06-26T21:19:23.489Z,7.90
2019-06-26T21:21:55.354Z,7.63
2019-06-26T21:24:27.376Z,7.33
2019-06-26T21:27:00.705Z,7.77
2019-06-26T21:29:32.886Z,7.10
2019-06-26T21:32:06.250Z,6.03
2019-06-26T21:34:38.133Z,6.50
2019-06-26T21:37:11.070Z,7.13
2019-06-26T21:39:42.883Z,6.07
2019-06-26T21:42:14.907Z,5.80
2019-06-26T21:44:46.654Z,6.00
2019-06-26T21:47:19.708Z,6.40
2019-06-26T21:49:51.659Z,6.13
2019-06-26T21:52:23.509Z,6.63
2019-06-26T21:54:55.440Z,6.60
2019-06-26T21:57:45.062Z,6.30
2019-06-26T22:00:38.532Z,5.80
2019-06-26T22:03:28.258Z,6.57
2019-06-26T22:06:04.648Z,6.50
2019-06-26T22:08:54.576Z,6.40
2019-06-26T22:11:26.587Z,6.03
2019-06-26T22:13:58.248Z,5.80
2019-06-26T22:16:30.287Z,6.50
2019-06-26T22:19:02.646Z,6.80
2019-06-26T22:21:35.727Z,6.03
2019-06-26T22:24:07.770Z,7.57
2019-06-26T22:26:39.530Z,7.20
2019-06-26T22:29:11.276Z,6.53
2019-06-26T22:31:43.016Z,6.70
2019-06-26T22:34:14.767Z,6.10
2019-06-26T22:36:51.677Z,6.80
2019-06-26T22:39:21.402Z,6.20
2019-06-26T22:41:53.086Z,5.97
2019-06-26T22:44:25.803Z,5.93
2019-06-26T22:46:57.557Z,5.70
2019-06-26T22:49:29.311Z,6.20
2019-06-26T22:52:01.108Z,6.90
2019-06-26T22:54:32.896Z,6.00
2019-06-26T22:57:04.677Z,5.77
2019-06-26T22:59:36.723Z,5.77
2019-06-26T23:02:08.728Z,5.73
2019-06-26T23:04:40.471Z,6.73
2019-06-26T23:07:12.314Z,5.63
2019-06-26T23:09:44.208Z,6.43
2019-06-26T23:12:16.223Z,6.27
2019-06-26T23:14:51.622Z,6.10
2019-06-26T23:17:26.664Z,6.43
2019-06-26T23:19:58.416Z,6.43
2019-06-26T23:22:31.094Z,5.80
2019-06-26T23:25:03.410Z,5.20
2019-06-26T23:27:35.240Z,5.03
2019-06-26T23:30:19.255Z,4.50
2019-06-26T23:32:51.199Z,4.20
2019-06-26T23:35:23.123Z,3.80
2019-06-26T23:37:56.746Z,3.67
2019-06-26T23:40:29.873Z,3.53
2019-06-26T23:43:01.708Z,3.80
2019-06-26T23:45:34.326Z,3.83
2019-06-26T23:48:06.196Z,3.53
2019-06-26T23:50:38.518Z,3.67
2019-06-26T23:53:10.350Z,3.33
2019-06-26T23:55:42.080Z,3.70
2019-06-26T23:58:13.987Z,3.13
